Time;durP1;ratioP1;P1;durP2;ratioP2;P2;SDS_P1;SDS_P2;PMS_P1;PMS_P2;Temp;Humidity;BMP_temperature;BMP_pressure;BME280_temperature;BME280_humidity;BME280_pressure;Samples;Min_cycle;Max_cycle;Signal;HPM_P1;HPM_P2
2022/10/02 00:02:38;;;;;;;1.58;0.90;;;;;;;;;;4859103;29;20085;-50
2022/10/02 00:05:29;;;;;;;;;;;;;;;;;;4859247;29;20081;-51
2022/10/02 00:08:32;;;;;;;2.38;1.20;;;;;;;;;;4862736;29;19930;-46
2022/10/02 00:11:32;;;;;;;4.50;1.60;;;;;;;;;;4875589;29;20047;-50
2022/10/02 00:14:19;;;;;;;2.95;1.85;;;;;;;;;;4938965;29;20051;-47
2022/10/02 00:17:06;;;;;;;2.47;1.77;;;;;;;;;;4936703;28;20050;-51
2022/10/02 00:19:54;;;;;;;2.80;1.60;;;;;;;;;;4939382;29;20103;-48
2022/10/02 00:22:47;;;;;;;6.15;1.83;;;;;;;;;;4939943;28;20027;-47
2022/10/02 00:25:48;;;;;;;2.90;1.83;;;;;;;;;;4932875;29;20134;-51
2022/10/02 00:28:47;;;;;;;2.25;1.52;;;;;;;;;;4936450;29;20399;-51
2022/10/02 00:31:43;;;;;;;2.40;1.58;;;;;;;;;;4934638;29;20462;-48
2022/10/02 00:35:01;;;;;;;3.30;1.67;;;;;;;;;;4932267;29;20490;-50
2022/10/02 00:38:06;;;;;;;1.83;1.10;;;;;;;;;;4930501;29;20088;-48
2022/10/02 00:40:58;;;;;;;1.02;0.93;;;;;;;;;;4937377;29;20055;-48
2022/10/02 00:44:02;;;;;;;3.72;1.88;;;;;;;;;;4939090;28;20099;-49
2022/10/02 00:46:54;;;;;;;2.72;1.33;;;;;;;;;;4940911;29;20042;-48
2022/10/02 00:49:52;;;;;;;1.67;1.10;;;;;;;;;;4935808;29;20131;-48
2022/10/02 00:53:15;;;;;;;1.00;1.00;;;;;;;;;;4936112;28;20114;-48
2022/10/02 00:56:08;;;;;;;1.58;1.17;;;;;;;;;;4935869;29;20492;-49
2022/10/02 00:59:01;;;;;;;1.85;1.15;;;;;;;;;;4934987;29;20506;-49
2022/10/02 01:02:02;;;;;;;6.25;1.77;;;;;;;;;;4942316;29;20047;-48
2022/10/02 01:04:48;;;;;;;5.40;1.00;;;;;;;;;;4935216;29;20036;-48
2022/10/02 01:07:38;;;;;;;1.48;0.82;;;;;;;;;;4930916;29;20508;-50
2022/10/02 01:10:27;;;;;;;2.47;0.90;;;;;;;;;;4939464;28;20039;-49
2022/10/02 01:13:12;;;;;;;2.38;1.10;;;;;;;;;;4935720;29;20038;-49
2022/10/02 01:16:02;;;;;;;1.08;0.98;;;;;;;;;;4939458;29;20143;-48
2022/10/02 01:18:48;;;;;;;2.47;1.85;;;;;;;;;;4936465;29;20410;-47
2022/10/02 01:21:44;;;;;;;5.10;1.50;;;;;;;;;;4935772;29;20027;-50
2022/10/02 01:24:35;;;;;;;2.90;1.42;;;;;;;;;;4936640;29;20406;-51
2022/10/02 01:27:23;;;;;;;2.33;1.25;;;;;;;;;;4936887;29;20035;-47
2022/10/02 01:30:16;;;;;;;2.17;1.50;;;;;;;;;;4937985;29;20527;-48
2022/10/02 01:33:03;;;;;;;2.42;1.35;;;;;;;;;;4937749;29;20082;-49
2022/10/02 01:35:49;;;;;;;4.38;1.20;;;;;;;;;;4940172;28;20052;-49
2022/10/02 01:38:36;;;;;;;1.67;1.30;;;;;;;;;;4939055;29;20058;-49
2022/10/02 01:41:22;;;;;;;1.63;1.20;;;;;;;;;;4934305;29;20043;-48
2022/10/02 01:44:09;;;;;;;1.70;0.90;;;;;;;;;;4937230;29;20044;-53
2022/10/02 01:47:03;;;;;;;3.13;1.00;;;;;;;;;;4940580;29;20047;-52
2022/10/02 01:50:08;;;;;;;4.53;1.13;;;;;;;;;;4937102;29;20139;-50
2022/10/02 01:53:38;;;;;;;1.20;1.10;;;;;;;;;;4939055;29;20035;-51
2022/10/02 01:56:47;;;;;;;2.55;1.02;;;;;;;;;;4834759;29;20419;-48
2022/10/02 01:59:45;;;;;;;1.10;0.90;;;;;;;;;;4834818;29;20141;-49
2022/10/02 02:02:46;;;;;;;1.42;1.20;;;;;;;;;;4834900;29;20046;-50
2022/10/02 02:06:01;;;;;;;0.82;0.80;;;;;;;;;;4832940;29;20044;-50
2022/10/02 02:08:54;;;;;;;1.05;0.90;;;;;;;;;;4833238;29;20160;-49
2022/10/02 02:11:46;;;;;;;4.80;0.85;;;;;;;;;;4835038;29;20551;-48
2022/10/02 02:14:38;;;;;;;2.00;1.10;;;;;;;;;;4821327;29;20050;-48
2022/10/02 02:17:33;;;;;;;1.25;0.93;;;;;;;;;;4830848;29;20523;-49
2022/10/02 02:20:30;;;;;;;1.55;1.20;;;;;;;;;;4829977;29;20412;-50
2022/10/02 02:23:23;;;;;;;1.90;0.75;;;;;;;;;;4829651;29;20032;-51
2022/10/02 02:26:11;;;;;;;;;;;;;;;;;;4832381;29;20445;-54
2022/10/02 02:29:01;;;;;;;1.92;0.98;;;;;;;;;;4834008;29;19928;-49
2022/10/02 02:31:54;;;;;;;2.83;0.73;;;;;;;;;;4889056;29;20174;-50
2022/10/02 02:34:45;;;;;;;1.33;0.70;;;;;;;;;;4939716;29;20381;-50
2022/10/02 02:37:33;;;;;;;0.85;0.85;;;;;;;;;;4938304;29;20032;-51
2022/10/02 02:40:25;;;;;;;3.85;0.85;;;;;;;;;;4938883;29;20492;-52
2022/10/02 02:43:14;;;;;;;1.53;0.80;;;;;;;;;;4939885;29;20043;-49
2022/10/02 02:46:08;;;;;;;2.40;1.00;;;;;;;;;;4934947;29;20352;-51
2022/10/02 02:49:01;;;;;;;1.35;0.80;;;;;;;;;;4928865;29;20044;-49
2022/10/02 02:51:48;;;;;;;1.00;0.90;;;;;;;;;;4938413;29;20038;-51
2022/10/02 02:54:41;;;;;;;1.42;1.00;;;;;;;;;;4934203;29;20044;-52
2022/10/02 02:57:35;;;;;;;0.75;0.75;;;;;;;;;;4936094;29;20036;-51
2022/10/02 03:00:22;;;;;;;0.85;0.80;;;;;;;;;;4928450;29;20036;-53
2022/10/02 03:03:07;;;;;;;0.85;0.70;;;;;;;;;;4935248;29;20042;-48
2022/10/02 03:06:03;;;;;;;2.13;0.95;;;;;;;;;;4931832;29;20052;-49
2022/10/02 03:08:51;;;;;;;0.93;0.80;;;;;;;;;;4937176;28;20118;-50
2022/10/02 03:11:55;;;;;;;1.40;0.80;;;;;;;;;;4932198;29;20032;-51
2022/10/02 03:15:14;;;;;;;0.82;0.82;;;;;;;;;;4938568;29;20052;-47
2022/10/02 03:18:27;;;;;;;1.08;0.73;;;;;;;;;;4937502;29;20125;-53
2022/10/02 03:21:15;;;;;;;3.20;1.25;;;;;;;;;;4935989;29;20106;-50
2022/10/02 03:24:15;;;;;;;0.73;0.73;;;;;;;;;;4930602;29;20043;-49
2022/10/02 03:27:11;;;;;;;1.00;0.98;;;;;;;;;;4932271;28;20095;-51
2022/10/02 03:30:03;;;;;;;1.13;1.02;;;;;;;;;;4936463;29;20058;-48
2022/10/02 03:32:52;;;;;;;0.90;0.90;;;;;;;;;;4936765;29;20062;-47
2022/10/02 03:35:38;;;;;;;2.03;0.80;;;;;;;;;;4933290;29;20055;-48
2022/10/02 03:38:26;;;;;;;3.95;0.90;;;;;;;;;;4936439;28;20035;-47
2022/10/02 03:41:13;;;;;;;1.33;0.80;;;;;;;;;;4935763;29;20542;-47
2022/10/02 03:43:58;;;;;;;2.20;1.00;;;;;;;;;;4936699;29;20047;-48
2022/10/02 03:46:44;;;;;;;1.00;0.90;;;;;;;;;;4933113;29;20062;-50
2022/10/02 03:49:30;;;;;;;1.13;1.00;;;;;;;;;;4931682;29;20047;-47
2022/10/02 03:52:19;;;;;;;1.27;0.90;;;;;;;;;;4938169;29;20038;-47
2022/10/02 03:55:36;;;;;;;1.17;1.08;;;;;;;;;;4933391;29;20051;-47
2022/10/02 03:58:24;;;;;;;1.25;1.00;;;;;;;;;;4937437;28;20373;-48
2022/10/02 04:01:16;;;;;;;1.67;1.00;;;;;;;;;;4938308;29;20582;-50
2022/10/02 04:04:09;;;;;;;;;;;;;;;;;;4932076;29;20039;-50
2022/10/02 04:07:04;;;;;;;1.20;1.10;;;;;;;;;;4936993;29;20295;-48
2022/10/02 04:10:15;;;;;;;1.13;1.02;;;;;;;;;;4938751;29;20065;-47
2022/10/02 04:13:09;;;;;;;1.58;1.17;;;;;;;;;;4932209;29;20039;-50
2022/10/02 04:16:04;;;;;;;1.10;1.00;;;;;;;;;;4933896;29;20130;-49
2022/10/02 04:19:00;;;;;;;2.97;1.30;;;;;;;;;;4937881;29;20044;-45
2022/10/02 04:21:53;;;;;;;0.90;0.90;;;;;;;;;;4939747;29;20455;-50
2022/10/02 04:24:53;;;;;;;1.52;1.27;;;;;;;;;;4936876;29;20123;-48
2022/10/02 04:28:00;;;;;;;3.20;1.30;;;;;;;;;;4937875;29;20072;-48
2022/10/02 04:30:45;;;;;;;2.70;1.30;;;;;;;;;;4940028;29;20075;-51
2022/10/02 04:33:31;;;;;;;1.13;1.10;;;;;;;;;;4940107;29;20114;-48
2022/10/02 04:36:20;;;;;;;2.80;1.20;;;;;;;;;;4939047;29;20046;-48
2022/10/02 04:39:36;;;;;;;1.67;1.00;;;;;;;;;;4938134;28;20058;-47
2022/10/02 04:42:41;;;;;;;1.33;1.17;;;;;;;;;;4941572;29;20067;-49
2022/10/02 04:45:45;;;;;;;2.55;1.40;;;;;;;;;;4942269;28;20047;-47
2022/10/02 04:48:53;;;;;;;1.25;1.10;;;;;;;;;;4936826;28;20040;-48
2022/10/02 04:51:56;;;;;;;1.95;1.10;;;;;;;;;;4940575;29;20039;-49
2022/10/02 04:54:57;;;;;;;1.92;1.30;;;;;;;;;;4938640;29;20504;-47
2022/10/02 04:57:51;;;;;;;2.70;1.13;;;;;;;;;;4936735;29;20035;-48
2022/10/02 05:01:07;;;;;;;1.20;1.10;;;;;;;;;;4939875;29;20061;-47
2022/10/02 05:04:13;;;;;;;3.05;1.33;;;;;;;;;;4932474;28;20476;-47
2022/10/02 05:07:01;;;;;;;1.48;1.25;;;;;;;;;;4934149;29;20046;-48
2022/10/02 05:10:18;;;;;;;5.25;1.38;;;;;;;;;;4937445;29;20050;-54
2022/10/02 05:13:52;;;;;;;2.65;1.50;;;;;;;;;;4922550;29;20107;-51
2022/10/02 05:17:02;;;;;;;2.47;1.40;;;;;;;;;;4843291;29;20057;-50
2022/10/02 05:20:06;;;;;;;3.72;1.60;;;;;;;;;;4843134;29;20061;-47
2022/10/02 05:23:17;;;;;;;6.45;1.20;;;;;;;;;;4843464;29;20081;-47
2022/10/02 05:26:05;;;;;;;1.33;1.23;;;;;;;;;;4842060;29;20042;-47
2022/10/02 05:29:05;;;;;;;1.95;1.20;;;;;;;;;;4848052;29;20764;-49
2022/10/02 05:32:13;;;;;;;3.78;1.40;;;;;;;;;;4843814;29;20129;-47
2022/10/02 05:35:06;;;;;;;5.93;1.40;;;;;;;;;;4843996;29;20126;-48
2022/10/02 05:38:02;;;;;;;;;;;;;;;;;;4847766;29;20065;-47
2022/10/02 05:41:02;;;;;;;3.65;1.20;;;;;;;;;;4846202;29;19970;-47
2022/10/02 05:44:16;;;;;;;1.27;1.17;;;;;;;;;;4842649;29;20560;-48
2022/10/02 05:47:14;;;;;;;1.85;1.20;;;;;;;;;;4809550;29;20069;-49
2022/10/02 05:50:16;;;;;;;6.40;1.30;;;;;;;;;;4815109;29;20409;-51
2022/10/02 05:53:20;;;;;;;1.73;1.27;;;;;;;;;;4866775;29;20192;-48
2022/10/02 05:56:26;;;;;;;1.80;1.45;;;;;;;;;;4895215;29;20053;-51
2022/10/02 05:59:21;;;;;;;3.15;2.05;;;;;;;;;;4900853;29;20054;-53
2022/10/02 06:02:36;;;;;;;4.03;1.75;;;;;;;;;;4899589;29;20033;-53
2022/10/02 06:05:32;;;;;;;4.93;1.80;;;;;;;;;;4896966;29;20055;-49
2022/10/02 06:08:24;;;;;;;4.15;2.13;;;;;;;;;;4895703;29;20040;-48
2022/10/02 06:11:16;;;;;;;3.75;1.55;;;;;;;;;;4896768;29;20037;-48
2022/10/02 06:14:11;;;;;;;5.15;2.00;;;;;;;;;;4896802;29;20050;-48
2022/10/02 06:17:06;;;;;;;2.67;2.10;;;;;;;;;;4898905;29;20045;-48
2022/10/02 06:19:59;;;;;;;2.75;1.80;;;;;;;;;;4899077;29;20486;-48
2022/10/02 06:23:09;;;;;;;3.30;1.92;;;;;;;;;;4901897;29;20131;-52
2022/10/02 06:25:59;;;;;;;2.25;1.90;;;;;;;;;;4932542;29;20062;-48
2022/10/02 06:28:49;;;;;;;7.05;2.10;;;;;;;;;;4938228;28;20064;-48
2022/10/02 06:31:50;;;;;;;3.25;1.60;;;;;;;;;;4940090;29;20043;-47
2022/10/02 06:34:36;;;;;;;3.55;1.50;;;;;;;;;;4936567;29;20051;-50
2022/10/02 06:38:03;;;;;;;4.78;1.67;;;;;;;;;;4939265;29;20135;-49
2022/10/02 06:41:15;;;;;;;2.42;1.80;;;;;;;;;;4938534;29;20069;-47
2022/10/02 06:44:24;;;;;;;5.88;2.10;;;;;;;;;;4936610;29;20051;-48
2022/10/02 06:47:16;;;;;;;2.25;1.70;;;;;;;;;;4939242;29;20055;-48
2022/10/02 06:50:26;;;;;;;7.33;1.87;;;;;;;;;;4935669;29;20040;-49
2022/10/02 06:53:15;;;;;;;6.05;1.83;;;;;;;;;;4935565;29;20714;-48
2022/10/02 06:56:13;;;;;;;2.40;1.65;;;;;;;;;;4935205;29;20051;-50
2022/10/02 06:59:26;;;;;;;1.52;1.30;;;;;;;;;;4929171;28;20481;-50
2022/10/02 07:02:28;;;;;;;3.50;1.50;;;;;;;;;;4933485;29;20524;-47
2022/10/02 07:05:42;;;;;;;2.85;1.45;;;;;;;;;;4927259;29;20099;-49
2022/10/02 07:08:38;;;;;;;3.47;1.17;;;;;;;;;;4929242;29;20048;-49
2022/10/02 07:11:42;;;;;;;3.72;1.75;;;;;;;;;;4923401;29;20167;-50
2022/10/02 07:15:10;;;;;;;3.58;1.95;;;;;;;;;;4923497;29;20048;-48
2022/10/02 07:17:56;;;;;;;1.40;1.30;;;;;;;;;;4930477;29;20039;-52
2022/10/02 07:21:14;;;;;;;1.42;1.30;;;;;;;;;;4925008;29;20063;-54
2022/10/02 07:24:27;;;;;;;1.60;1.50;;;;;;;;;;4934468;29;20586;-49
2022/10/02 07:27:25;;;;;;;2.30;1.10;;;;;;;;;;4930268;29;20043;-50
2022/10/02 07:30:15;;;;;;;3.08;1.30;;;;;;;;;;4927801;29;20504;-50
2022/10/02 07:33:09;;;;;;;2.47;1.70;;;;;;;;;;4926871;29;20126;-50
2022/10/02 07:36:04;;;;;;;2.25;1.25;;;;;;;;;;4928476;29;20070;-49
2022/10/02 07:39:01;;;;;;;2.45;1.40;;;;;;;;;;4928340;29;20048;-47
2022/10/02 07:42:23;;;;;;;2.97;1.08;;;;;;;;;;4930405;29;20087;-49
2022/10/02 07:45:20;;;;;;;2.35;1.63;;;;;;;;;;4854732;29;20046;-51
2022/10/02 07:48:18;;;;;;;4.60;1.60;;;;;;;;;;4855541;29;20034;-50
2022/10/02 07:54:29;;;;;;;;;;;;;;;;;;4856698;29;20069;-48
2022/10/02 07:57:21;;;;;;;4.57;1.30;;;;;;;;;;4855522;29;20525;-51
2022/10/02 08:00:14;;;;;;;1.13;0.95;;;;;;;;;;4854433;29;20049;-48
2022/10/02 08:03:07;;;;;;;2.00;1.35;;;;;;;;;;4851803;29;20037;-49
2022/10/02 08:05:54;;;;;;;4.13;1.73;;;;;;;;;;4850575;29;20171;-49
2022/10/02 08:09:01;;;;;;;4.40;1.50;;;;;;;;;;4853597;29;20041;-50
2022/10/02 08:11:58;;;;;;;1.15;1.15;;;;;;;;;;4854473;29;20128;-48
2022/10/02 08:14:45;;;;;;;2.25;1.80;;;;;;;;;;4848955;29;20769;-48
2022/10/02 08:17:35;;;;;;;2.22;1.85;;;;;;;;;;4851834;29;20393;-49
2022/10/02 08:20:30;;;;;;;2.88;1.42;;;;;;;;;;4853169;29;20136;-50
2022/10/02 08:23:36;;;;;;;4.30;1.80;;;;;;;;;;4929801;29;20027;-46
2022/10/02 08:26:28;;;;;;;3.75;1.73;;;;;;;;;;4933935;29;20503;-52
2022/10/02 08:29:21;;;;;;;4.50;1.98;;;;;;;;;;4925183;29;20052;-50
2022/10/02 08:32:13;;;;;;;4.85;1.60;;;;;;;;;;4930995;29;20504;-51
2022/10/02 08:34:59;;;;;;;2.53;1.58;;;;;;;;;;4924707;29;20048;-48
2022/10/02 08:37:48;;;;;;;2.63;1.40;;;;;;;;;;4923955;28;20105;-49
2022/10/02 08:40:54;;;;;;;2.65;1.65;;;;;;;;;;4931572;28;20157;-48
2022/10/02 08:44:24;;;;;;;4.20;1.48;;;;;;;;;;4925965;29;20039;-48
2022/10/02 08:47:16;;;;;;;2.90;2.17;;;;;;;;;;4880902;29;20087;-51
2022/10/02 08:50:50;;;;;;;4.10;1.20;;;;;;;;;;4871491;29;20064;-51
2022/10/02 08:54:06;;;;;;;2.63;1.70;;;;;;;;;;4828656;29;20661;-50
2022/10/02 08:57:26;;;;;;;3.47;1.35;;;;;;;;;;4827815;29;20083;-52
2022/10/02 09:00:54;;;;;;;2.92;1.70;;;;;;;;;;4829037;29;20642;-50
2022/10/02 09:04:39;;;;;;;3.33;1.55;;;;;;;;;;4841435;29;20538;-51
2022/10/02 09:07:44;;;;;;;6.70;1.30;;;;;;;;;;4841341;29;20045;-54
2022/10/02 09:11:07;;;;;;;1.77;1.48;;;;;;;;;;4847410;29;20093;-52
2022/10/02 09:14:24;;;;;;;3.00;2.70;;;;;;;;;;4847399;29;20514;-48
2022/10/02 09:17:48;;;;;;;4.10;1.63;;;;;;;;;;4842404;29;20076;-48
2022/10/02 09:20:40;;;;;;;2.80;1.45;;;;;;;;;;4855611;29;20044;-52
2022/10/02 09:24:00;;;;;;;1.75;1.65;;;;;;;;;;4871139;29;20041;-50
2022/10/02 09:27:16;;;;;;;1.52;1.40;;;;;;;;;;4877577;29;20101;-49
2022/10/02 09:30:21;;;;;;;1.67;1.15;;;;;;;;;;4913214;29;20126;-49
2022/10/02 09:33:14;;;;;;;1.98;1.38;;;;;;;;;;4936179;29;20126;-52
2022/10/02 09:36:25;;;;;;;1.75;1.30;;;;;;;;;;4935478;29;20094;-51
2022/10/02 09:39:37;;;;;;;4.88;1.70;;;;;;;;;;4938645;28;20594;-51
2022/10/02 09:43:00;;;;;;;2.65;1.50;;;;;;;;;;4935370;29;20438;-49
2022/10/02 09:45:51;;;;;;;;;;;;;;;;;;4935341;29;20051;-50
2022/10/02 09:49:11;;;;;;;3.97;1.35;;;;;;;;;;4935747;29;20408;-49
2022/10/02 09:52:00;;;;;;;1.40;1.30;;;;;;;;;;4941389;29;20113;-52
2022/10/02 09:55:16;;;;;;;1.00;0.90;;;;;;;;;;4938742;29;20067;-52
2022/10/02 09:58:26;;;;;;;1.70;1.33;;;;;;;;;;4937714;29;20096;-53
2022/10/02 10:01:32;;;;;;;2.80;1.27;;;;;;;;;;4934453;29;20047;-52
2022/10/02 10:04:31;;;;;;;3.60;1.77;;;;;;;;;;4827030;29;20129;-53
2022/10/02 10:07:35;;;;;;;1.85;1.00;;;;;;;;;;4822067;29;20056;-52
2022/10/02 10:10:30;;;;;;;1.35;1.25;;;;;;;;;;4825250;29;20055;-53
2022/10/02 10:13:40;;;;;;;1.30;1.15;;;;;;;;;;4827047;29;20133;-52
2022/10/02 10:16:40;;;;;;;2.30;1.42;;;;;;;;;;4822019;29;20061;-51
2022/10/02 10:20:03;;;;;;;4.88;1.42;;;;;;;;;;4820726;29;20516;-54
2022/10/02 10:23:26;;;;;;;1.35;1.00;;;;;;;;;;4824584;29;20503;-53
2022/10/02 10:27:09;;;;;;;1.15;0.90;;;;;;;;;;4827593;29;20058;-52
2022/10/02 10:30:03;;;;;;;1.35;0.80;;;;;;;;;;4790864;29;20058;-51
2022/10/02 10:33:19;;;;;;;3.38;0.95;;;;;;;;;;4785711;29;20098;-50
2022/10/02 10:40:02;;;;;;;3.33;0.82;;;;;;;;;;4784684;29;20051;-52
2022/10/02 10:43:08;;;;;;;1.70;0.95;;;;;;;;;;4879694;29;20123;-55
2022/10/02 10:46:35;;;;;;;1.15;0.90;;;;;;;;;;4876840;29;20108;-53
2022/10/02 10:49:34;;;;;;;1.10;1.00;;;;;;;;;;4829287;29;20068;-51
2022/10/02 10:52:24;;;;;;;1.40;0.90;;;;;;;;;;4834431;29;20396;-53
2022/10/02 10:55:28;;;;;;;1.02;0.90;;;;;;;;;;4828956;29;20069;-49
2022/10/02 10:58:41;;;;;;;5.18;1.00;;;;;;;;;;4833099;29;20038;-51
2022/10/02 11:01:46;;;;;;;2.08;1.10;;;;;;;;;;4830500;29;20046;-51
2022/10/02 11:05:09;;;;;;;1.13;0.95;;;;;;;;;;4831602;29;20776;-54
2022/10/02 11:08:23;;;;;;;2.72;0.90;;;;;;;;;;4760582;30;20066;-55
2022/10/02 11:11:15;;;;;;;1.45;1.10;;;;;;;;;;4756045;30;20482;-52
2022/10/02 11:14:47;;;;;;;1.05;0.98;;;;;;;;;;4760301;29;20091;-50
2022/10/02 11:17:58;;;;;;;4.70;2.92;;;;;;;;;;4721999;29;20742;-51
2022/10/02 11:21:04;;;;;;;0.98;0.95;;;;;;;;;;4725452;30;20446;-51
2022/10/02 11:24:29;;;;;;;1.58;0.90;;;;;;;;;;4718867;30;20538;-51
2022/10/02 11:27:30;;;;;;;1.33;0.90;;;;;;;;;;4758207;29;20071;-53
2022/10/02 11:30:34;;;;;;;0.90;0.77;;;;;;;;;;4767045;29;20582;-53
2022/10/02 11:33:28;;;;;;;2.10;1.80;;;;;;;;;;4769464;29;20036;-50
2022/10/02 11:36:48;;;;;;;6.40;2.15;;;;;;;;;;4759519;29;20046;-52
2022/10/02 11:39:52;;;;;;;2.20;1.10;;;;;;;;;;4764574;29;20068;-48
2022/10/02 11:42:59;;;;;;;0.80;0.80;;;;;;;;;;4769015;29;20212;-54
2022/10/02 11:45:58;;;;;;;1.60;1.27;;;;;;;;;;4859638;29;20101;-50
2022/10/02 11:49:06;;;;;;;0.70;0.70;;;;;;;;;;4863350;29;20048;-51
2022/10/02 11:52:20;;;;;;;1.17;0.93;;;;;;;;;;4912754;29;20090;-52
2022/10/02 11:55:21;;;;;;;0.93;0.93;;;;;;;;;;4933193;29;20139;-51
2022/10/02 11:58:19;;;;;;;0.80;0.80;;;;;;;;;;4933219;29;20038;-51
2022/10/02 12:01:13;;;;;;;3.38;1.00;;;;;;;;;;4937239;29;20047;-50
2022/10/02 12:04:21;;;;;;;1.42;1.10;;;;;;;;;;4938095;29;20105;-52
2022/10/02 12:07:30;;;;;;;1.42;0.80;;;;;;;;;;4935278;28;20147;-53
2022/10/02 12:10:26;;;;;;;0.70;0.70;;;;;;;;;;4934243;28;20067;-49
2022/10/02 12:13:29;;;;;;;0.30;0.30;;;;;;;;;;4932777;29;20070;-53
2022/10/02 12:16:42;;;;;;;0.30;0.30;;;;;;;;;;4934390;29;20051;-53
2022/10/02 12:27:23;;;;;;;0.20;0.20;;;;;;;;;;4767758;30;20415;-54
2022/10/02 12:30:21;;;;;;;0.50;0.50;;;;;;;;;;4772397;29;20048;-50
2022/10/02 12:33:07;;;;;;;1.40;0.40;;;;;;;;;;4768644;30;20138;-52
2022/10/02 12:36:17;;;;;;;0.50;0.50;;;;;;;;;;4768725;30;20092;-52
2022/10/02 12:39:31;;;;;;;0.52;0.52;;;;;;;;;;4768725;30;20048;-52
2022/10/02 12:42:51;;;;;;;0.40;0.40;;;;;;;;;;4770267;29;20119;-52
2022/10/02 12:45:59;;;;;;;0.45;0.43;;;;;;;;;;4772671;29;20051;-53
2022/10/02 12:49:00;;;;;;;0.70;0.40;;;;;;;;;;4772997;29;20079;-53
2022/10/02 12:52:17;;;;;;;1.10;0.73;;;;;;;;;;4773096;30;20062;-54
2022/10/02 12:55:16;;;;;;;0.32;0.32;;;;;;;;;;4770557;30;20142;-52
2022/10/02 12:58:09;;;;;;;0.60;0.60;;;;;;;;;;4814830;29;20087;-52
2022/10/02 13:01:30;;;;;;;0.50;0.50;;;;;;;;;;4931873;29;20126;-50
2022/10/02 13:04:42;;;;;;;2.70;0.40;;;;;;;;;;4936006;29;20039;-54
2022/10/02 13:07:30;;;;;;;0.75;0.40;;;;;;;;;;4901708;29;20040;-51
2022/10/02 13:10:27;;;;;;;1.98;0.60;;;;;;;;;;4895856;29;20048;-51
2022/10/02 13:13:35;;;;;;;0.90;0.90;;;;;;;;;;4899165;29;20537;-49
2022/10/02 13:16:48;;;;;;;0.70;0.70;;;;;;;;;;4898286;29;20053;-49
2022/10/02 13:20:13;;;;;;;0.70;0.70;;;;;;;;;;4898054;29;20622;-51
2022/10/02 13:23:06;;;;;;;0.68;0.60;;;;;;;;;;4879907;29;20045;-49
2022/10/02 13:26:01;;;;;;;1.25;0.70;;;;;;;;;;4883524;29;20499;-52
2022/10/02 13:29:16;;;;;;;1.85;0.70;;;;;;;;;;4878455;29;20048;-49
2022/10/02 13:32:23;;;;;;;1.20;0.50;;;;;;;;;;4883092;29;20703;-51
2022/10/02 13:35:50;;;;;;;2.15;0.60;;;;;;;;;;4879671;29;20105;-54
2022/10/02 13:38:57;;;;;;;0.65;0.60;;;;;;;;;;4842383;29;20053;-51
2022/10/02 13:42:05;;;;;;;0.30;0.30;;;;;;;;;;4840816;29;20046;-51
2022/10/02 13:44:59;;;;;;;0.73;0.70;;;;;;;;;;4842997;29;20400;-48
2022/10/02 13:48:15;;;;;;;0.50;0.40;;;;;;;;;;4838181;29;20056;-52
2022/10/02 13:51:18;;;;;;;1.25;0.70;;;;;;;;;;4844714;29;20065;-52
2022/10/02 13:54:22;;;;;;;6.95;0.60;;;;;;;;;;4840595;29;20065;-53
2022/10/02 13:57:15;;;;;;;4.05;0.68;;;;;;;;;;4843612;29;20120;-53
2022/10/02 14:00:09;;;;;;;1.65;0.50;;;;;;;;;;4871300;29;20045;-51
2022/10/02 14:03:16;;;;;;;0.40;0.40;;;;;;;;;;4879317;29;20131;-54
2022/10/02 14:06:20;;;;;;;1.13;0.60;;;;;;;;;;4882333;29;20052;-52
2022/10/02 14:09:36;;;;;;;0.80;0.43;;;;;;;;;;4879602;29;20044;-52
2022/10/02 14:12:30;;;;;;;0.47;0.43;;;;;;;;;;4877179;29;20041;-54
2022/10/02 14:15:22;;;;;;;0.40;0.40;;;;;;;;;;4931928;29;20043;-52
2022/10/02 14:18:26;;;;;;;0.50;0.25;;;;;;;;;;4937337;29;20083;-53
2022/10/02 14:21:32;;;;;;;0.30;0.30;;;;;;;;;;4936786;29;20079;-50
2022/10/02 14:24:58;;;;;;;0.30;0.30;;;;;;;;;;4933229;28;20536;-51
2022/10/02 14:27:47;;;;;;;0.40;0.40;;;;;;;;;;4937355;29;20033;-52
2022/10/02 14:30:32;;;;;;;0.32;0.32;;;;;;;;;;4939370;29;20098;-54
2022/10/02 14:33:33;;;;;;;0.80;0.45;;;;;;;;;;4926088;29;20116;-53
2022/10/02 14:36:54;;;;;;;2.33;0.40;;;;;;;;;;4929498;29;20031;-51
2022/10/02 14:39:41;;;;;;;0.57;0.30;;;;;;;;;;4932504;29;21007;-53
2022/10/02 14:42:55;;;;;;;2.58;0.50;;;;;;;;;;4940877;29;20082;-52
2022/10/02 14:46:05;;;;;;;0.35;0.35;;;;;;;;;;4933070;29;20099;-51
2022/10/02 14:49:16;;;;;;;1.02;0.38;;;;;;;;;;4936528;29;20407;-51
2022/10/02 14:52:21;;;;;;;0.40;0.40;;;;;;;;;;4937370;29;20031;-53
2022/10/02 14:55:34;;;;;;;4.55;0.50;;;;;;;;;;4932135;29;20048;-54
2022/10/02 14:58:27;;;;;;;0.32;0.32;;;;;;;;;;4937276;28;20047;-49
2022/10/02 15:01:25;;;;;;;2.50;0.50;;;;;;;;;;4928597;29;20040;-53
2022/10/02 15:04:49;;;;;;;1.30;0.28;;;;;;;;;;4935916;28;20040;-53
2022/10/02 15:07:37;;;;;;;0.65;0.40;;;;;;;;;;4858583;29;20080;-53
2022/10/02 15:10:32;;;;;;;1.15;0.47;;;;;;;;;;4856426;29;20144;-53
2022/10/02 15:13:44;;;;;;;0.98;0.60;;;;;;;;;;4859763;29;23229;-55
2022/10/02 15:20:13;;;;;;;0.25;0.25;;;;;;;;;;4858607;29;20049;-55
2022/10/02 15:23:02;;;;;;;0.38;0.30;;;;;;;;;;4859535;29;20041;-54
2022/10/02 15:26:39;;;;;;;0.45;0.40;;;;;;;;;;4858571;29;20045;-52
2022/10/02 15:29:38;;;;;;;0.15;0.15;;;;;;;;;;4804468;29;20089;-50
2022/10/02 15:32:49;;;;;;;0.40;0.40;;;;;;;;;;4806014;29;20048;-51
2022/10/02 15:36:10;;;;;;;0.35;0.35;;;;;;;;;;4802315;29;20058;-51
2022/10/02 15:39:14;;;;;;;0.82;0.40;;;;;;;;;;4801746;29;20051;-53
2022/10/02 15:42:08;;;;;;;3.00;0.30;;;;;;;;;;4808305;29;20042;-53
2022/10/02 15:45:10;;;;;;;0.40;0.40;;;;;;;;;;4841838;29;20504;-53
2022/10/02 15:48:05;;;;;;;;;;;;;;;;;;4836509;29;20045;-52
2022/10/02 15:51:19;;;;;;;1.73;0.40;;;;;;;;;;4837054;29;20020;-54
2022/10/02 15:54:55;;;;;;;1.95;0.57;;;;;;;;;;4836546;29;20057;-54
2022/10/02 15:57:53;;;;;;;1.35;0.47;;;;;;;;;;4784027;29;20049;-52
2022/10/02 16:01:00;;;;;;;0.32;0.30;;;;;;;;;;4785201;29;20055;-50
2022/10/02 16:03:59;;;;;;;1.58;0.65;;;;;;;;;;4781937;29;20055;-53
2022/10/02 16:06:56;;;;;;;4.78;0.30;;;;;;;;;;4845032;29;20033;-54
2022/10/02 16:10:10;;;;;;;0.60;0.40;;;;;;;;;;4840722;29;20042;-52
2022/10/02 16:13:32;;;;;;;0.40;0.40;;;;;;;;;;4841088;29;20503;-51
2022/10/02 16:16:36;;;;;;;1.27;0.53;;;;;;;;;;4844702;29;20054;-54
2022/10/02 16:19:55;;;;;;;0.40;0.40;;;;;;;;;;4845476;29;20438;-52
2022/10/02 16:23:16;;;;;;;0.40;0.30;;;;;;;;;;4842689;29;20170;-54
2022/10/02 16:26:22;;;;;;;1.58;0.60;;;;;;;;;;4794944;29;20140;-52
2022/10/02 16:29:18;;;;;;;1.48;0.40;;;;;;;;;;4870153;29;20056;-53
2022/10/02 16:32:11;;;;;;;1.13;0.60;;;;;;;;;;4853067;29;100444;-53
2022/10/02 16:35:23;;;;;;;0.57;0.40;;;;;;;;;;4853685;29;20542;-51
2022/10/02 16:38:39;;;;;;;0.50;0.50;;;;;;;;;;4861596;29;20455;-53
2022/10/02 16:41:46;;;;;;;0.95;0.90;;;;;;;;;;4846309;29;20052;-53
2022/10/02 16:46:06;;;;;;;2.08;1.10;;;;;;;;;;5081794;27;20624;-52
2022/10/02 16:48:54;;;;;;;2.28;1.20;;;;;;;;;;5091229;27;20056;-45
2022/10/02 16:52:00;;;;;;;2.25;1.33;;;;;;;;;;5098492;28;23136;-50
2022/10/02 16:54:28;;;;;;;2.40;1.30;;;;;;;;;;5088441;28;20046;-52
2022/10/02 16:57:07;;;;;;;1.77;1.00;;;;;;;;;;5104000;28;20032;-55
2022/10/02 16:59:50;;;;;;;1.50;0.70;;;;;;;;;;5085100;28;20071;-52
2022/10/02 17:02:32;;;;;;;1.52;0.77;;;;;;;;;;5072904;28;20082;-50
2022/10/02 17:05:17;;;;;;;1.35;0.63;;;;;;;;;;5078808;28;20493;-48
2022/10/02 17:07:58;;;;;;;2.90;0.90;;;;;;;;;;5082416;28;20028;-53
2022/10/02 17:10:45;;;;;;;0.90;0.70;;;;;;;;;;5079888;28;20045;-48
2022/10/02 17:13:35;;;;;;;3.03;0.82;;;;;;;;;;5081155;28;20077;-51
2022/10/02 17:16:03;;;;;;;0.75;0.47;;;;;;;;;;5082498;28;20815;-48
2022/10/02 17:18:52;;;;;;;1.83;0.70;;;;;;;;;;5086571;28;20028;-49
2022/10/02 17:21:35;;;;;;;0.60;0.60;;;;;;;;;;5101315;28;20047;-49
2022/10/02 17:24:29;;;;;;;4.10;0.80;;;;;;;;;;5096015;28;20044;-51
2022/10/02 17:26:57;;;;;;;0.60;0.57;;;;;;;;;;5095865;28;20035;-50
2022/10/02 17:29:25;;;;;;;0.75;0.60;;;;;;;;;;5090519;28;20049;-50
2022/10/02 17:31:57;;;;;;;2.35;0.63;;;;;;;;;;5079622;28;20422;-51
2022/10/02 17:34:24;;;;;;;1.15;0.63;;;;;;;;;;5091795;27;20115;-49
2022/10/02 17:37:02;;;;;;;1.05;0.70;;;;;;;;;;5100882;28;20537;-48
2022/10/02 17:40:09;;;;;;;1.40;0.80;;;;;;;;;;5090567;28;20036;-50
2022/10/02 17:42:56;;;;;;;5.30;0.50;;;;;;;;;;5075356;28;20044;-50
2022/10/02 17:45:28;;;;;;;1.05;0.65;;;;;;;;;;5095978;28;20081;-49
2022/10/02 17:48:14;;;;;;;1.65;0.70;;;;;;;;;;5099596;28;20036;-49
2022/10/02 17:51:15;;;;;;;1.58;0.90;;;;;;;;;;5100197;27;20068;-50
2022/10/02 17:57:06;;;;;;;7.53;0.95;;;;;;;;;;5068427;28;20051;-50
2022/10/02 17:59:44;;;;;;;3.00;0.90;;;;;;;;;;5070113;28;20090;-48
2022/10/02 18:02:47;;;;;;;1.02;0.90;;;;;;;;;;5066022;28;20028;-50
2022/10/02 18:05:28;;;;;;;5.32;1.17;;;;;;;;;;5082762;28;23438;-50
2022/10/02 18:08:05;;;;;;;3.55;1.10;;;;;;;;;;5086566;28;20020;-48
2022/10/02 18:10:40;;;;;;;2.40;1.63;;;;;;;;;;5084372;28;20533;-49
2022/10/02 18:13:28;;;;;;;2.88;1.30;;;;;;;;;;5085081;28;20030;-48
2022/10/02 18:16:35;;;;;;;1.00;0.98;;;;;;;;;;5084826;28;20036;-48
2022/10/02 18:19:18;;;;;;;4.22;1.05;;;;;;;;;;5075262;28;20069;-51
2022/10/02 18:21:46;;;;;;;3.17;1.20;;;;;;;;;;5063701;28;20484;-49
2022/10/02 18:24:24;;;;;;;3.10;1.13;;;;;;;;;;5062602;28;20044;-52
2022/10/02 18:27:17;;;;;;;3.40;1.50;;;;;;;;;;5065066;28;20032;-48